createdAt,value
2019-04-22T00:00:38.456Z,3.37
2019-04-22T00:03:10.251Z,3.70
2019-04-22T00:06:00.895Z,4.00
2019-04-22T00:08:36.226Z,4.17
2019-04-22T00:11:14.428Z,3.80
2019-04-22T00:13:47.168Z,3.93
2019-04-22T00:16:07.306Z,4.10
2019-04-22T00:19:01.182Z,4.23
2019-04-22T00:21:21.463Z,4.57
2019-04-22T00:23:49.689Z,4.67
2019-04-22T00:26:23.711Z,4.37
2019-04-22T00:31:40.374Z,4.03
2019-04-22T00:34:14.226Z,3.93
2019-04-22T00:36:48.141Z,4.13
2019-04-22T00:39:22.061Z,3.40
2019-04-22T00:41:57.285Z,4.30
2019-04-22T00:44:25.847Z,3.63
2019-04-22T00:47:00.646Z,4.00
2019-04-22T00:52:03.583Z,4.07
2019-04-22T00:54:43.870Z,3.63
2019-04-22T00:57:05.429Z,3.87
2019-04-22T00:59:43.602Z,3.60
2019-04-22T01:02:15.334Z,3.50
2019-04-22T01:04:48.882Z,3.40
2019-04-22T01:07:12.895Z,3.47
2019-04-22T01:09:44.961Z,3.77
2019-04-22T01:12:24.995Z,3.40
2019-04-22T01:14:47.266Z,3.77
2019-04-22T01:17:19.038Z,3.83
2019-04-22T01:19:56.240Z,3.97
2019-04-22T01:22:23.489Z,3.97
2019-04-22T01:24:52.684Z,3.73
2019-04-22T01:27:20.459Z,3.97
2019-04-22T01:29:48.960Z,3.97
2019-04-22T01:32:15.463Z,4.23
2019-04-22T01:34:52.596Z,3.93
2019-04-22T01:37:28.537Z,3.90
2019-04-22T01:40:09.787Z,4.10
2019-04-22T01:42:48.822Z,3.70
2019-04-22T01:45:13.882Z,3.70
2019-04-22T01:47:43.721Z,3.83
2019-04-22T01:50:18.946Z,4.10
2019-04-22T01:52:52.094Z,4.37
2019-04-22T01:55:27.395Z,3.70
2019-04-22T01:57:53.671Z,3.40
2019-04-22T02:00:18.922Z,2.80
2019-04-22T02:02:59.694Z,3.00
2019-04-22T02:05:31.356Z,3.27
2019-04-22T02:08:08.220Z,3.40
2019-04-22T02:10:39.158Z,3.33
2019-04-22T02:13:06.982Z,3.60
2019-04-22T02:15:43.751Z,3.40
2019-04-22T02:18:18.322Z,3.50
2019-04-22T02:20:43.021Z,3.60
2019-04-22T02:23:42.877Z,3.60
2019-04-22T02:28:38.529Z,3.60
2019-04-22T02:36:19.231Z,3.63
2019-04-22T02:38:51.889Z,3.33
2019-04-22T02:43:55.380Z,3.77
2019-04-22T02:56:27.211Z,3.90
2019-04-22T03:01:33.139Z,3.80
2019-04-22T03:04:11.049Z,3.60
2019-04-22T03:09:03.824Z,3.90
2019-04-22T03:11:34.270Z,3.73
2019-04-22T03:16:37.720Z,3.63
2019-04-22T03:19:17.429Z,3.50
2019-04-22T03:21:54.574Z,3.17
2019-04-22T03:24:27.793Z,3.53
2019-04-22T03:29:18.210Z,3.17
2019-04-22T03:37:21.133Z,2.93
2019-04-22T03:49:49.921Z,3.83
2019-04-22T03:54:46.413Z,3.57
2019-04-22T03:59:52.053Z,4.03
2019-04-22T04:02:35.741Z,3.73
2019-04-22T04:04:49.602Z,3.70
2019-04-22T04:07:38.323Z,3.40
2019-04-22T04:10:00.699Z,3.63
2019-04-22T04:15:05.401Z,3.50
2019-04-22T04:17:28.887Z,3.30
2019-04-22T04:22:53.728Z,3.63
2019-04-22T04:37:55.714Z,3.87
2019-04-22T04:42:53.367Z,3.70
2019-04-22T04:45:34.096Z,4.03
2019-04-22T04:48:01.016Z,3.40
2019-04-22T04:50:18.600Z,3.30
2019-04-22T04:53:06.283Z,3.40
2019-04-22T04:55:28.219Z,3.80
2019-04-22T05:05:31.697Z,3.70
2019-04-22T05:08:00.523Z,3.33
2019-04-22T05:15:55.377Z,3.60
2019-04-22T05:18:14.881Z,3.63
2019-04-22T05:21:04.811Z,3.97
2019-04-22T05:23:28.892Z,3.37
2019-04-22T05:25:41.345Z,3.50
2019-04-22T05:28:20.420Z,4.03
2019-04-22T05:30:47.572Z,3.80
2019-04-22T05:33:26.276Z,3.77
2019-04-22T05:35:59.203Z,3.43
2019-04-22T05:40:56.580Z,3.60
2019-04-22T05:43:27.436Z,3.73
2019-04-22T05:45:59.201Z,4.20
2019-04-22T05:48:38.054Z,3.97
2019-04-22T05:51:03.840Z,4.27
2019-04-22T05:53:37.234Z,4.23
2019-04-22T05:56:12.736Z,4.00
2019-04-22T05:58:46.398Z,3.87
2019-04-22T06:03:55.794Z,3.73
2019-04-22T06:08:50.953Z,3.73
2019-04-22T06:11:28.014Z,4.30
2019-04-22T06:13:51.986Z,3.80
2019-04-22T06:16:31.368Z,3.97
2019-04-22T06:19:03.035Z,4.20
2019-04-22T06:21:35.984Z,3.67
2019-04-22T06:24:14.066Z,4.00
2019-04-22T06:26:48.904Z,4.20
2019-04-22T06:29:16.577Z,4.17
2019-04-22T06:32:03.637Z,4.57
2019-04-22T06:34:17.732Z,4.37
2019-04-22T06:39:26.518Z,4.30
2019-04-22T06:41:47.986Z,4.07
2019-04-22T06:46:52.386Z,4.23
2019-04-22T06:52:01.156Z,4.20
2019-04-22T06:54:28.179Z,4.63
2019-04-22T06:57:00.745Z,3.97
2019-04-22T06:59:33.010Z,4.10
2019-04-22T07:04:34.858Z,4.20
2019-04-22T07:12:20.127Z,4.07
2019-04-22T07:14:48.998Z,4.07
2019-04-22T07:17:14.267Z,3.90
2019-04-22T07:20:04.381Z,3.80
2019-04-22T07:22:24.257Z,3.70
2019-04-22T07:24:56.185Z,4.00
2019-04-22T07:27:22.226Z,3.83
2019-04-22T07:30:03.885Z,3.90
2019-04-22T07:32:53.518Z,3.50
2019-04-22T07:35:03.752Z,3.60
2019-04-22T07:40:04.557Z,4.13
2019-04-22T07:42:36.429Z,3.97
2019-04-22T07:45:10.199Z,4.00
2019-04-22T07:50:25.412Z,3.80
2019-04-22T07:53:02.908Z,3.80
2019-04-22T07:55:13.445Z,3.60
2019-04-22T07:58:10.290Z,3.97
2019-04-22T08:00:25.016Z,3.40
2019-04-22T08:03:09.848Z,3.40
2019-04-22T08:05:24.710Z,3.40
2019-04-22T08:07:59.472Z,3.63
2019-04-22T08:12:58.074Z,3.52
2019-04-22T08:15:33.144Z,3.13
2019-04-22T08:18:22.141Z,3.30
2019-04-22T08:20:42.781Z,3.33
2019-04-22T08:23:09.387Z,3.20
2019-04-22T08:25:42.865Z,3.30
2019-04-22T08:28:24.032Z,3.10
2019-04-22T08:30:47.716Z,3.10
2019-04-22T08:33:21.616Z,3.67
2019-04-22T08:38:24.167Z,3.43
2019-04-22T08:41:28.442Z,3.37
2019-04-22T08:46:27.307Z,3.23
2019-04-22T08:48:59.897Z,3.30
2019-04-22T08:56:37.751Z,2.83
2019-04-22T08:59:09.795Z,3.00
2019-04-22T09:01:35.870Z,2.90
2019-04-22T09:04:10.028Z,3.07
2019-04-22T09:09:15.270Z,2.77
2019-04-22T09:11:47.070Z,2.50
2019-04-22T09:14:22.579Z,2.70
2019-04-22T09:16:48.576Z,2.97
2019-04-22T09:19:17.936Z,3.10
2019-04-22T09:21:54.545Z,2.80
2019-04-22T09:24:23.455Z,2.93
2019-04-22T09:26:54.288Z,2.90
2019-04-22T09:29:34.102Z,2.80
2019-04-22T09:32:09.390Z,2.77
2019-04-22T09:34:35.192Z,2.73
2019-04-22T09:37:11.918Z,2.80
2019-04-22T09:42:27.364Z,3.00
2019-04-22T09:44:40.311Z,3.00
2019-04-22T09:47:11.595Z,2.80
2019-04-22T09:49:53.184Z,3.10
2019-04-22T09:52:15.137Z,2.77
2019-04-22T09:54:57.004Z,2.90
2019-04-22T09:57:21.451Z,2.90
2019-04-22T09:59:57.489Z,3.22
2019-04-22T10:02:26.393Z,2.87
2019-04-22T10:05:05.581Z,2.70
2019-04-22T10:07:27.496Z,4.33
2019-04-22T10:10:03.468Z,7.50
2019-04-22T10:15:11.300Z,2.50
2019-04-22T10:17:36.512Z,2.90
2019-04-22T10:20:10.501Z,2.80
2019-04-22T10:22:46.480Z,2.65
2019-04-22T10:25:32.739Z,2.80
2019-04-22T10:27:53.543Z,2.65
2019-04-22T10:30:23.582Z,3.17
2019-04-22T10:32:47.617Z,2.80
2019-04-22T10:35:14.695Z,2.77
2019-04-22T10:37:42.333Z,2.67
2019-04-22T10:40:25.744Z,2.58
2019-04-22T10:42:56.840Z,5.15
2019-04-22T10:45:28.199Z,3.10
2019-04-22T10:48:01.381Z,2.62
2019-04-22T10:50:48.537Z,2.70
2019-04-22T10:53:19.677Z,2.67
2019-04-22T10:55:51.603Z,2.90
2019-04-22T10:58:22.875Z,2.62
2019-04-22T11:00:54.347Z,2.60
2019-04-22T11:03:26.541Z,2.60
2019-04-22T11:05:57.236Z,2.37
2019-04-22T11:08:37.974Z,2.67
2019-04-22T11:11:11.936Z,2.40
2019-04-22T11:13:31.793Z,2.30
2019-04-22T11:16:03.318Z,2.77
2019-04-22T11:18:33.852Z,2.67
2019-04-22T11:21:05.362Z,2.90
2019-04-22T11:23:36.483Z,2.65
2019-04-22T11:26:08.146Z,2.35
2019-04-22T11:28:38.597Z,2.83
2019-04-22T11:31:10.380Z,2.70
2019-04-22T11:33:40.794Z,2.77
2019-04-22T11:36:11.058Z,2.80
2019-04-22T11:38:48.758Z,2.80
2019-04-22T11:41:14.681Z,2.52
2019-04-22T11:43:45.191Z,2.33
2019-04-22T11:46:15.831Z,2.50
2019-04-22T11:48:47.615Z,2.55
2019-04-22T11:51:18.309Z,2.30
2019-04-22T11:53:49.147Z,2.77
2019-04-22T11:56:20.759Z,2.50
2019-04-22T11:58:52.820Z,2.83
2019-04-22T12:01:24.467Z,3.02
2019-04-22T12:03:55.789Z,2.92
2019-04-22T12:06:26.378Z,3.33
2019-04-22T12:08:57.529Z,2.75
2019-04-22T12:11:28.301Z,2.90
2019-04-22T12:14:00.008Z,2.45
2019-04-22T12:16:31.606Z,2.50
2019-04-22T12:19:03.146Z,2.77
2019-04-22T12:21:35.041Z,2.75
2019-04-22T12:24:05.990Z,2.62
2019-04-22T12:26:37.970Z,2.35
2019-04-22T12:29:08.936Z,2.77
2019-04-22T12:31:42.011Z,2.35
2019-04-22T12:34:13.277Z,2.62
2019-04-22T12:36:44.822Z,2.35
2019-04-22T12:39:15.650Z,2.72
2019-04-22T12:41:46.450Z,2.45
2019-04-22T12:44:18.071Z,2.62
2019-04-22T12:46:48.412Z,2.40
2019-04-22T12:49:20.262Z,2.30
2019-04-22T12:51:51.489Z,2.37
2019-04-22T12:54:21.867Z,2.47
2019-04-22T12:56:53.364Z,2.62
2019-04-22T12:59:23.762Z,2.25
2019-04-22T13:01:55.102Z,3.12
2019-04-22T13:04:25.428Z,2.50
2019-04-22T13:06:55.622Z,2.60
2019-04-22T13:09:27.318Z,2.60
2019-04-22T13:11:59.008Z,2.83
2019-04-22T13:14:30.689Z,3.50
2019-04-22T13:17:02.037Z,2.67
2019-04-22T13:19:33.862Z,2.60
2019-04-22T13:22:05.069Z,2.50
2019-04-22T13:24:36.144Z,2.42
2019-04-22T13:27:06.754Z,2.60
2019-04-22T13:29:37.303Z,2.85
2019-04-22T13:32:08.815Z,2.83
2019-04-22T13:34:45.691Z,2.40
2019-04-22T13:37:12.775Z,3.05
2019-04-22T13:39:43.257Z,2.50
2019-04-22T13:42:19.319Z,2.52
2019-04-22T13:44:46.166Z,2.83
2019-04-22T13:47:34.814Z,2.62
2019-04-22T13:52:58.579Z,2.50
2019-04-22T13:55:41.979Z,3.55
2019-04-22T13:57:43.934Z,3.17
2019-04-22T14:00:00.163Z,2.50
2019-04-22T14:03:02.331Z,2.60
2019-04-22T14:05:33.068Z,2.50
2019-04-22T14:08:04.924Z,2.80
2019-04-22T14:10:36.363Z,2.20
2019-04-22T14:13:07.792Z,2.42
2019-04-22T14:15:40.136Z,2.40
2019-04-22T14:18:10.786Z,2.72
2019-04-22T14:20:42.493Z,3.30
2019-04-22T14:23:14.269Z,2.98
2019-04-22T14:25:46.389Z,2.67
2019-04-22T14:28:18.014Z,2.60
2019-04-22T14:30:48.744Z,2.47
2019-04-22T14:33:20.195Z,2.67
2019-04-22T14:35:51.935Z,2.80
2019-04-22T14:38:22.233Z,2.65
2019-04-22T14:40:54.359Z,2.92
2019-04-22T14:43:50.181Z,2.50
2019-04-22T14:46:26.415Z,2.33
2019-04-22T14:48:54.259Z,2.60
2019-04-22T14:51:22.242Z,2.58
2019-04-22T14:53:52.300Z,2.33
2019-04-22T14:56:06.502Z,2.52
2019-04-22T14:58:37.394Z,2.67
2019-04-22T15:01:08.787Z,2.95
2019-04-22T15:03:42.006Z,2.35
2019-04-22T15:06:12.498Z,2.83
2019-04-22T15:08:42.822Z,2.67
2019-04-22T15:11:13.198Z,2.58
2019-04-22T15:13:43.520Z,2.35
2019-04-22T15:16:42.602Z,2.30
2019-04-22T15:19:35.814Z,2.60
2019-04-22T15:22:06.157Z,2.80
2019-04-22T15:24:36.702Z,2.40
2019-04-22T15:27:08.640Z,2.40
2019-04-22T15:29:39.196Z,2.42
2019-04-22T15:32:09.566Z,2.52
2019-04-22T15:34:39.771Z,2.77
2019-04-22T15:37:10.067Z,2.37
2019-04-22T15:39:41.544Z,2.30
2019-04-22T15:42:19.934Z,2.17
2019-04-22T15:44:44.208Z,2.72
2019-04-22T15:47:15.222Z,2.30
2019-04-22T15:49:45.879Z,2.72
2019-04-22T15:52:16.658Z,2.45
2019-04-22T15:54:50.253Z,2.47
2019-04-22T15:57:20.322Z,2.27
2019-04-22T16:00:06.849Z,2.65
2019-04-22T16:02:23.414Z,2.70
2019-04-22T16:04:54.632Z,2.33
2019-04-22T16:07:27.009Z,2.37
2019-04-22T16:09:57.578Z,2.08
2019-04-22T16:12:35.920Z,1.92
2019-04-22T16:15:03.049Z,2.25
2019-04-22T16:17:32.804Z,2.22
2019-04-22T16:20:03.631Z,1.90
2019-04-22T16:22:53.038Z,2.40
2019-04-22T16:25:49.497Z,2.00
2019-04-22T16:28:21.490Z,2.08
2019-04-22T16:30:53.160Z,2.15
2019-04-22T16:33:23.557Z,2.20
2019-04-22T16:35:55.073Z,2.08
2019-04-22T16:38:26.724Z,2.30
2019-04-22T16:40:58.732Z,2.40
2019-04-22T16:43:29.142Z,1.90
2019-04-22T16:45:59.462Z,2.17
2019-04-22T16:48:29.847Z,1.90
2019-04-22T16:51:00.250Z,1.90
2019-04-22T16:53:31.478Z,2.05
2019-04-22T16:56:02.731Z,1.60
2019-04-22T16:58:34.614Z,1.80
2019-04-22T17:01:07.996Z,2.00
2019-04-22T17:03:58.447Z,2.00
2019-04-22T17:06:32.365Z,1.90
2019-04-22T17:09:02.719Z,2.00
2019-04-22T17:11:33.986Z,2.00
2019-04-22T17:14:05.594Z,1.82
2019-04-22T17:16:36.769Z,2.17
2019-04-22T17:19:09.008Z,2.02
2019-04-22T17:21:39.674Z,1.80
2019-04-22T17:24:09.988Z,1.85
2019-04-22T17:26:40.308Z,2.30
2019-04-22T17:29:10.469Z,1.72
2019-04-22T17:31:52.197Z,1.90
2019-04-22T17:34:15.934Z,2.25
2019-04-22T17:36:49.061Z,2.20
2019-04-22T17:39:31.509Z,1.90
2019-04-22T17:42:12.504Z,2.12
2019-04-22T17:44:48.157Z,2.17
2019-04-22T17:47:28.601Z,2.40
2019-04-22T17:50:14.486Z,2.10
2019-04-22T17:52:42.617Z,2.12
2019-04-22T17:55:11.420Z,2.20
2019-04-22T17:57:46.334Z,1.90
2019-04-22T18:00:14.499Z,1.95
2019-04-22T18:02:44.705Z,2.20
2019-04-22T18:05:07.606Z,2.10
2019-04-22T18:07:59.053Z,2.80
2019-04-22T18:10:33.102Z,2.67
2019-04-22T18:13:08.810Z,2.50
2019-04-22T18:15:29.376Z,2.90
2019-04-22T18:18:09.146Z,3.87
2019-04-22T18:20:29.386Z,3.10
2019-04-22T18:22:58.052Z,2.80
2019-04-22T18:25:43.015Z,3.20
2019-04-22T18:28:17.655Z,3.90
2019-04-22T18:30:35.185Z,3.15
2019-04-22T18:33:13.320Z,4.00
2019-04-22T18:35:44.483Z,3.17
2019-04-22T18:38:28.228Z,2.72
2019-04-22T18:40:50.274Z,3.33
2019-04-22T18:43:28.740Z,3.15
2019-04-22T18:45:59.900Z,3.02
2019-04-22T18:48:21.796Z,5.03
2019-04-22T18:51:27.639Z,4.90
2019-04-22T18:54:33.466Z,4.55
2019-04-22T18:57:02.683Z,2.70
2019-04-22T18:59:20.134Z,2.83
2019-04-22T19:01:46.185Z,3.25
2019-04-22T19:04:22.033Z,3.17
2019-04-22T19:07:15.231Z,3.50
2019-04-22T19:09:51.670Z,2.80
2019-04-22T19:12:22.404Z,3.12
2019-04-22T19:14:53.037Z,3.35
2019-04-22T19:17:27.180Z,3.08
2019-04-22T19:19:56.060Z,3.12
2019-04-22T19:22:26.578Z,2.92
2019-04-22T19:24:47.612Z,2.65
2019-04-22T19:27:26.619Z,2.40
2019-04-22T19:29:57.348Z,2.67
2019-04-22T19:32:32.300Z,2.37
2019-04-22T19:34:56.918Z,3.00
2019-04-22T19:37:28.729Z,3.00
2019-04-22T19:42:43.141Z,3.15
2019-04-22T19:45:08.271Z,3.15
2019-04-22T19:47:44.969Z,3.13
2019-04-22T19:50:16.507Z,3.27
2019-04-22T19:52:43.438Z,3.13
2019-04-22T19:55:16.863Z,3.52
2019-04-22T19:57:51.010Z,3.70
2019-04-22T20:00:23.999Z,4.60
2019-04-22T20:03:20.433Z,4.77
2019-04-22T20:06:04.466Z,4.60
2019-04-22T20:08:30.215Z,3.90
2019-04-22T20:11:08.650Z,4.40
2019-04-22T20:13:37.032Z,3.67
2019-04-22T20:15:58.273Z,3.77
2019-04-22T20:21:12.475Z,3.77
2019-04-22T20:23:33.011Z,4.63
2019-04-22T20:26:08.608Z,4.53
2019-04-22T20:28:51.233Z,3.93
2019-04-22T20:31:22.178Z,3.67
2019-04-22T20:34:01.353Z,3.83
2019-04-22T20:36:39.108Z,3.90
2019-04-22T20:38:56.536Z,3.90
2019-04-22T20:41:19.721Z,4.10
2019-04-22T20:43:56.534Z,3.63
2019-04-22T20:46:29.799Z,3.73
2019-04-22T20:49:00.622Z,4.20
2019-04-22T20:51:48.689Z,3.60
2019-04-22T20:54:07.407Z,3.83
2019-04-22T20:56:33.723Z,3.73
2019-04-22T20:59:08.525Z,4.70
2019-04-22T21:01:44.055Z,4.93
2019-04-22T21:03:59.880Z,5.33
2019-04-22T21:06:44.219Z,5.10
2019-04-22T21:09:19.629Z,5.73
2019-04-22T21:11:49.385Z,4.73
2019-04-22T21:14:19.949Z,5.33
2019-04-22T21:16:59.189Z,4.87
2019-04-22T21:19:36.458Z,4.20
2019-04-22T21:22:03.151Z,3.97
2019-04-22T21:24:29.072Z,4.00
2019-04-22T21:27:08.872Z,3.70
2019-04-22T21:29:30.957Z,3.50
2019-04-22T21:32:12.473Z,3.53
2019-04-22T21:34:43.703Z,3.42
2019-04-22T21:37:13.842Z,3.30
2019-04-22T21:39:38.016Z,3.27
2019-04-22T21:42:11.824Z,3.00
2019-04-22T21:44:44.007Z,2.90
2019-04-22T21:47:23.874Z,2.60
2019-04-22T21:50:09.838Z,2.80
2019-04-22T21:52:22.910Z,2.60
2019-04-22T21:55:03.962Z,2.47
2019-04-22T21:57:50.189Z,3.00
2019-04-22T22:00:29.348Z,2.70
2019-04-22T22:02:54.556Z,2.60
2019-04-22T22:05:15.446Z,2.83
2019-04-22T22:07:34.526Z,2.60
2019-04-22T22:10:30.994Z,2.57
2019-04-22T22:13:00.714Z,2.77
2019-04-22T22:15:28.674Z,2.63
2019-04-22T22:17:58.697Z,3.00
2019-04-22T22:20:34.163Z,2.97
2019-04-22T22:23:20.342Z,3.00
2019-04-22T22:25:33.633Z,2.80
2019-04-22T22:28:21.884Z,2.40
2019-04-22T22:31:03.430Z,2.87
2019-04-22T22:33:17.614Z,3.10
2019-04-22T22:35:47.068Z,2.63
2019-04-22T22:38:18.122Z,2.60
2019-04-22T22:40:32.820Z,2.40
2019-04-22T22:43:12.903Z,2.90
2019-04-22T22:45:42.496Z,2.57
2019-04-22T22:48:26.706Z,2.60
2019-04-22T22:50:55.083Z,2.33
2019-04-22T22:53:40.481Z,2.37
2019-04-22T22:56:07.538Z,2.40
2019-04-22T22:58:34.053Z,2.37
2019-04-22T23:01:04.785Z,2.50
2019-04-22T23:03:51.719Z,2.60
2019-04-22T23:06:12.794Z,2.50
2019-04-22T23:08:44.693Z,2.80
2019-04-22T23:11:11.758Z,2.77
2019-04-22T23:13:44.235Z,2.67
2019-04-22T23:16:10.328Z,2.60
2019-04-22T23:18:29.928Z,2.20
2019-04-22T23:21:01.460Z,2.57
2019-04-22T23:23:51.294Z,2.40
2019-04-22T23:26:42.102Z,2.43
2019-04-22T23:29:11.712Z,2.70
2019-04-22T23:31:46.871Z,2.70
2019-04-22T23:34:22.714Z,2.80
2019-04-22T23:37:16.221Z,2.57
2019-04-22T23:42:46.854Z,2.77
2019-04-22T23:45:00.319Z,2.60
2019-04-22T23:47:26.072Z,2.50
2019-04-22T23:50:02.656Z,2.80
2019-04-22T23:52:47.975Z,2.23
2019-04-22T23:55:23.118Z,3.00
2019-04-22T23:57:58.417Z,2.47
